Terminal Aerodrome Forecast
Issued by NWS

Home | Current Version | Previous Version | Text Only | Print | Product List | Glossary On
Versions: 1 2 3 4 5 6 7 8 9 10 11 12
907
FTUS44 KLZK 192333
TAFHRO
TAF
KHRO 192333Z 2000/2024 15004KT P6SM BKN250
     FM201400 15009G16KT P6SM BKN250=

USA.gov is the U.S. government's official web portal to all federal, state and local government web resources and services.